sensor_id;sensor_type;location;lat;lon;timestamp;temperature;humidity
36924;DHT22;22841;50.252;18.688;2023-05-07T00:00:04;10.10;75.60
36924;DHT22;22841;50.252;18.688;2023-05-07T00:02:34;10.10;89.80
36924;DHT22;22841;50.252;18.688;2023-05-07T00:05:00;10.00;78.20
36924;DHT22;22841;50.252;18.688;2023-05-07T00:07:26;10.00;75.50
36924;DHT22;22841;50.252;18.688;2023-05-07T00:09:52;10.00;79.20
36924;DHT22;22841;50.252;18.688;2023-05-07T00:12:18;10.00;82.80
36924;DHT22;22841;50.252;18.688;2023-05-07T00:14:44;10.00;91.00
36924;DHT22;22841;50.252;18.688;2023-05-07T00:17:11;10.10;80.00
36924;DHT22;22841;50.252;18.688;2023-05-07T00:19:37;10.20;76.40
36924;DHT22;22841;50.252;18.688;2023-05-07T00:22:03;10.10;71.30
36924;DHT22;22841;50.252;18.688;2023-05-07T00:24:29;10.20;75.00
36924;DHT22;22841;50.252;18.688;2023-05-07T00:26:55;10.10;74.90
36924;DHT22;22841;50.252;18.688;2023-05-07T00:29:23;10.20;72.70
36924;DHT22;22841;50.252;18.688;2023-05-07T00:31:49;10.20;65.50
36924;DHT22;22841;50.252;18.688;2023-05-07T00:34:16;10.20;63.20
36924;DHT22;22841;50.252;18.688;2023-05-07T00:36:42;10.10;70.10
36924;DHT22;22841;50.252;18.688;2023-05-07T00:39:08;10.10;77.80
36924;DHT22;22841;50.252;18.688;2023-05-07T00:41:34;10.10;74.40
36924;DHT22;22841;50.252;18.688;2023-05-07T00:44:00;10.10;76.40
36924;DHT22;22841;50.252;18.688;2023-05-07T00:46:28;10.00;85.20
36924;DHT22;22841;50.252;18.688;2023-05-07T00:48:57;10.10;79.90
36924;DHT22;22841;50.252;18.688;2023-05-07T00:51:24;10.10;82.80
36924;DHT22;22841;50.252;18.688;2023-05-07T00:53:53;10.00;81.20
36924;DHT22;22841;50.252;18.688;2023-05-07T00:56:21;10.00;85.30
36924;DHT22;22841;50.252;18.688;2023-05-07T00:58:47;10.00;82.80
36924;DHT22;22841;50.252;18.688;2023-05-07T01:01:14;10.10;82.00
36924;DHT22;22841;50.252;18.688;2023-05-07T01:03:42;10.00;72.70
36924;DHT22;22841;50.252;18.688;2023-05-07T01:06:09;9.90;76.50
36924;DHT22;22841;50.252;18.688;2023-05-07T01:08:39;9.90;85.40
36924;DHT22;22841;50.252;18.688;2023-05-07T01:11:07;9.90;90.60
36924;DHT22;22841;50.252;18.688;2023-05-07T01:13:34;9.80;85.10
36924;DHT22;22841;50.252;18.688;2023-05-07T01:16:01;9.90;90.60
36924;DHT22;22841;50.252;18.688;2023-05-07T01:18:27;9.90;81.40
36924;DHT22;22841;50.252;18.688;2023-05-07T01:20:58;9.90;86.80
36924;DHT22;22841;50.252;18.688;2023-05-07T01:23:25;9.90;87.30
36924;DHT22;22841;50.252;18.688;2023-05-07T01:25:52;9.90;70.70
36924;DHT22;22841;50.252;18.688;2023-05-07T01:28:19;9.80;82.50
36924;DHT22;22841;50.252;18.688;2023-05-07T01:30:48;9.80;71.80
36924;DHT22;22841;50.252;18.688;2023-05-07T01:33:16;9.90;66.10
36924;DHT22;22841;50.252;18.688;2023-05-07T01:35:47;9.90;67.20
36924;DHT22;22841;50.252;18.688;2023-05-07T01:38:14;9.90;66.90
36924;DHT22;22841;50.252;18.688;2023-05-07T01:40:41;9.70;66.20
36924;DHT22;22841;50.252;18.688;2023-05-07T01:43:07;9.70;80.90
36924;DHT22;22841;50.252;18.688;2023-05-07T01:45:35;9.90;73.40
36924;DHT22;22841;50.252;18.688;2023-05-07T01:48:03;9.80;68.30
36924;DHT22;22841;50.252;18.688;2023-05-07T01:50:30;9.80;73.40
36924;DHT22;22841;50.252;18.688;2023-05-07T01:52:57;9.70;74.20
36924;DHT22;22841;50.252;18.688;2023-05-07T01:55:23;9.80;68.10
36924;DHT22;22841;50.252;18.688;2023-05-07T01:57:49;9.80;70.50
36924;DHT22;22841;50.252;18.688;2023-05-07T02:00:15;9.80;69.40
36924;DHT22;22841;50.252;18.688;2023-05-07T02:02:41;9.80;69.80
36924;DHT22;22841;50.252;18.688;2023-05-07T02:05:08;9.70;78.00
36924;DHT22;22841;50.252;18.688;2023-05-07T02:07:34;9.70;76.10
36924;DHT22;22841;50.252;18.688;2023-05-07T02:10:00;9.70;79.00
36924;DHT22;22841;50.252;18.688;2023-05-07T02:12:26;9.60;82.80
36924;DHT22;22841;50.252;18.688;2023-05-07T02:14:52;9.70;77.00
36924;DHT22;22841;50.252;18.688;2023-05-07T02:17:18;9.70;72.80
36924;DHT22;22841;50.252;18.688;2023-05-07T02:19:44;9.60;68.80
36924;DHT22;22841;50.252;18.688;2023-05-07T02:22:10;9.60;64.50
36924;DHT22;22841;50.252;18.688;2023-05-07T02:24:36;9.50;68.80
36924;DHT22;22841;50.252;18.688;2023-05-07T02:27:02;9.50;76.00
36924;DHT22;22841;50.252;18.688;2023-05-07T02:29:29;9.40;80.90
36924;DHT22;22841;50.252;18.688;2023-05-07T02:31:55;9.40;76.00
36924;DHT22;22841;50.252;18.688;2023-05-07T02:34:21;9.50;82.20
36924;DHT22;22841;50.252;18.688;2023-05-07T02:36:47;9.50;70.20
36924;DHT22;22841;50.252;18.688;2023-05-07T02:39:14;9.30;75.10
36924;DHT22;22841;50.252;18.688;2023-05-07T02:41:41;9.30;87.90
36924;DHT22;22841;50.252;18.688;2023-05-07T02:44:07;9.30;88.90
36924;DHT22;22841;50.252;18.688;2023-05-07T02:46:33;9.50;91.30
36924;DHT22;22841;50.252;18.688;2023-05-07T02:48:59;9.40;81.60
36924;DHT22;22841;50.252;18.688;2023-05-07T02:51:26;9.40;75.40
36924;DHT22;22841;50.252;18.688;2023-05-07T02:53:52;9.30;74.60
36924;DHT22;22841;50.252;18.688;2023-05-07T02:56:18;9.30;82.10
36924;DHT22;22841;50.252;18.688;2023-05-07T02:58:44;9.30;74.00
36924;DHT22;22841;50.252;18.688;2023-05-07T03:01:10;9.40;67.20
36924;DHT22;22841;50.252;18.688;2023-05-07T03:03:37;9.30;71.10
36924;DHT22;22841;50.252;18.688;2023-05-07T03:06:03;9.50;62.70
36924;DHT22;22841;50.252;18.688;2023-05-07T03:08:29;9.40;57.10
36924;DHT22;22841;50.252;18.688;2023-05-07T03:10:56;9.50;53.30
36924;DHT22;22841;50.252;18.688;2023-05-07T03:13:22;9.40;53.10
36924;DHT22;22841;50.252;18.688;2023-05-07T03:15:48;9.40;55.20
36924;DHT22;22841;50.252;18.688;2023-05-07T03:18:14;9.40;60.00
36924;DHT22;22841;50.252;18.688;2023-05-07T03:20:40;9.40;58.20
36924;DHT22;22841;50.252;18.688;2023-05-07T03:23:06;9.30;59.00
36924;DHT22;22841;50.252;18.688;2023-05-07T03:25:32;9.30;60.50
36924;DHT22;22841;50.252;18.688;2023-05-07T03:27:59;9.30;58.70
36924;DHT22;22841;50.252;18.688;2023-05-07T03:30:25;9.30;58.00
36924;DHT22;22841;50.252;18.688;2023-05-07T03:32:51;9.40;51.00
36924;DHT22;22841;50.252;18.688;2023-05-07T03:35:17;9.30;51.20
36924;DHT22;22841;50.252;18.688;2023-05-07T03:37:43;9.20;59.40
36924;DHT22;22841;50.252;18.688;2023-05-07T03:40:09;9.20;55.80
36924;DHT22;22841;50.252;18.688;2023-05-07T03:42:36;9.20;65.90
36924;DHT22;22841;50.252;18.688;2023-05-07T03:45:02;9.10;65.10
36924;DHT22;22841;50.252;18.688;2023-05-07T03:47:28;9.00;61.20
36924;DHT22;22841;50.252;18.688;2023-05-07T03:49:55;9.00;59.40
36924;DHT22;22841;50.252;18.688;2023-05-07T03:52:21;9.00;65.70
36924;DHT22;22841;50.252;18.688;2023-05-07T03:54:52;9.00;75.00
36924;DHT22;22841;50.252;18.688;2023-05-07T03:57:19;9.00;69.10
36924;DHT22;22841;50.252;18.688;2023-05-07T03:59:45;9.00;71.90
36924;DHT22;22841;50.252;18.688;2023-05-07T04:02:11;8.90;74.30
36924;DHT22;22841;50.252;18.688;2023-05-07T04:04:37;9.00;80.00
36924;DHT22;22841;50.252;18.688;2023-05-07T04:07:03;9.00;74.30
36924;DHT22;22841;50.252;18.688;2023-05-07T04:09:30;9.00;68.00
36924;DHT22;22841;50.252;18.688;2023-05-07T04:11:56;9.00;64.00
36924;DHT22;22841;50.252;18.688;2023-05-07T04:14:22;8.90;74.20
36924;DHT22;22841;50.252;18.688;2023-05-07T04:16:48;9.00;72.60
36924;DHT22;22841;50.252;18.688;2023-05-07T04:19:14;9.00;62.90
36924;DHT22;22841;50.252;18.688;2023-05-07T04:21:40;9.00;65.20
36924;DHT22;22841;50.252;18.688;2023-05-07T04:24:06;9.00;67.40
36924;DHT22;22841;50.252;18.688;2023-05-07T04:26:32;9.00;63.50
36924;DHT22;22841;50.252;18.688;2023-05-07T04:28:59;8.90;62.20
36924;DHT22;22841;50.252;18.688;2023-05-07T04:31:25;8.90;64.10
36924;DHT22;22841;50.252;18.688;2023-05-07T04:33:51;9.00;63.90
36924;DHT22;22841;50.252;18.688;2023-05-07T04:36:17;9.00;62.10
36924;DHT22;22841;50.252;18.688;2023-05-07T04:38:43;9.00;59.10
36924;DHT22;22841;50.252;18.688;2023-05-07T04:41:13;8.90;54.50
36924;DHT22;22841;50.252;18.688;2023-05-07T04:43:39;8.90;67.50
36924;DHT22;22841;50.252;18.688;2023-05-07T04:46:05;9.10;53.10
36924;DHT22;22841;50.252;18.688;2023-05-07T04:48:31;8.90;51.60
36924;DHT22;22841;50.252;18.688;2023-05-07T04:50:57;8.90;59.50
36924;DHT22;22841;50.252;18.688;2023-05-07T04:53:23;9.00;48.30
36924;DHT22;22841;50.252;18.688;2023-05-07T04:55:55;9.00;50.70
36924;DHT22;22841;50.252;18.688;2023-05-07T04:58:22;9.00;43.30
36924;DHT22;22841;50.252;18.688;2023-05-07T05:00:48;9.00;40.70
36924;DHT22;22841;50.252;18.688;2023-05-07T05:03:14;9.00;42.50
36924;DHT22;22841;50.252;18.688;2023-05-07T05:05:40;9.00;42.70
36924;DHT22;22841;50.252;18.688;2023-05-07T05:08:06;9.10;42.80
36924;DHT22;22841;50.252;18.688;2023-05-07T05:10:33;9.00;27.60
36924;DHT22;22841;50.252;18.688;2023-05-07T05:12:59;9.00;31.00
36924;DHT22;22841;50.252;18.688;2023-05-07T05:15:25;8.90;35.60
36924;DHT22;22841;50.252;18.688;2023-05-07T05:17:51;8.80;35.80
36924;DHT22;22841;50.252;18.688;2023-05-07T05:20:17;8.80;45.30
36924;DHT22;22841;50.252;18.688;2023-05-07T05:22:43;8.70;48.50
36924;DHT22;22841;50.252;18.688;2023-05-07T05:25:09;8.70;41.70
36924;DHT22;22841;50.252;18.688;2023-05-07T05:27:35;8.70;40.30
36924;DHT22;22841;50.252;18.688;2023-05-07T05:30:02;8.70;42.40
36924;DHT22;22841;50.252;18.688;2023-05-07T05:32:28;8.70;47.60
36924;DHT22;22841;50.252;18.688;2023-05-07T05:34:54;8.60;40.50
36924;DHT22;22841;50.252;18.688;2023-05-07T05:37:20;8.70;46.80
36924;DHT22;22841;50.252;18.688;2023-05-07T05:39:46;8.70;42.90
36924;DHT22;22841;50.252;18.688;2023-05-07T05:42:12;8.70;45.30
36924;DHT22;22841;50.252;18.688;2023-05-07T05:44:38;8.60;47.10
36924;DHT22;22841;50.252;18.688;2023-05-07T05:47:04;8.70;50.30
36924;DHT22;22841;50.252;18.688;2023-05-07T05:49:31;8.60;43.20
36924;DHT22;22841;50.252;18.688;2023-05-07T05:51:57;8.60;39.00
36924;DHT22;22841;50.252;18.688;2023-05-07T05:54:23;8.50;45.80
36924;DHT22;22841;50.252;18.688;2023-05-07T05:56:49;8.50;45.20
36924;DHT22;22841;50.252;18.688;2023-05-07T05:59:15;8.50;38.50
36924;DHT22;22841;50.252;18.688;2023-05-07T06:01:41;8.50;49.80
36924;DHT22;22841;50.252;18.688;2023-05-07T06:04:07;8.60;47.10
36924;DHT22;22841;50.252;18.688;2023-05-07T06:06:33;8.60;32.50
36924;DHT22;22841;50.252;18.688;2023-05-07T06:08:59;8.60;30.50
36924;DHT22;22841;50.252;18.688;2023-05-07T06:11:25;8.50;39.70
36924;DHT22;22841;50.252;18.688;2023-05-07T06:13:51;8.50;44.00
36924;DHT22;22841;50.252;18.688;2023-05-07T06:16:17;8.50;47.50
36924;DHT22;22841;50.252;18.688;2023-05-07T06:18:43;8.30;46.00
36924;DHT22;22841;50.252;18.688;2023-05-07T06:21:13;8.30;55.00
36924;DHT22;22841;50.252;18.688;2023-05-07T06:23:39;8.30;52.90
36924;DHT22;22841;50.252;18.688;2023-05-07T06:26:06;8.20;50.70
36924;DHT22;22841;50.252;18.688;2023-05-07T06:28:33;8.20;58.20
36924;DHT22;22841;50.252;18.688;2023-05-07T06:31:16;8.20;64.60
36924;DHT22;22841;50.252;18.688;2023-05-07T06:33:44;8.20;57.40
36924;DHT22;22841;50.252;18.688;2023-05-07T06:36:10;8.20;58.70
36924;DHT22;22841;50.252;18.688;2023-05-07T06:38:36;8.20;42.10
36924;DHT22;22841;50.252;18.688;2023-05-07T06:41:02;8.20;54.00
36924;DHT22;22841;50.252;18.688;2023-05-07T06:43:28;8.20;54.80
36924;DHT22;22841;50.252;18.688;2023-05-07T06:45:54;8.10;53.20
36924;DHT22;22841;50.252;18.688;2023-05-07T06:48:20;8.10;48.90
36924;DHT22;22841;50.252;18.688;2023-05-07T06:50:46;8.10;49.20
36924;DHT22;22841;50.252;18.688;2023-05-07T06:53:12;8.10;47.90
36924;DHT22;22841;50.252;18.688;2023-05-07T06:55:38;8.10;43.30
36924;DHT22;22841;50.252;18.688;2023-05-07T06:58:04;8.10;47.90
36924;DHT22;22841;50.252;18.688;2023-05-07T07:00:31;8.20;57.40
36924;DHT22;22841;50.252;18.688;2023-05-07T07:02:57;8.10;44.20
36924;DHT22;22841;50.252;18.688;2023-05-07T07:05:25;8.20;40.50
36924;DHT22;22841;50.252;18.688;2023-05-07T07:07:51;8.20;45.40
36924;DHT22;22841;50.252;18.688;2023-05-07T07:10:20;8.20;36.30
36924;DHT22;22841;50.252;18.688;2023-05-07T07:12:46;8.30;40.90
36924;DHT22;22841;50.252;18.688;2023-05-07T07:15:13;8.30;26.70
36924;DHT22;22841;50.252;18.688;2023-05-07T07:17:39;8.40;25.20
36924;DHT22;22841;50.252;18.688;2023-05-07T07:20:06;8.30;9.50
36924;DHT22;22841;50.252;18.688;2023-05-07T07:22:34;8.20;1.00
36924;DHT22;22841;50.252;18.688;2023-05-07T07:25:00;8.30;1.00
36924;DHT22;22841;50.252;18.688;2023-05-07T07:27:26;8.30;1.00
36924;DHT22;22841;50.252;18.688;2023-05-07T07:29:52;8.40;6.80
36924;DHT22;22841;50.252;18.688;2023-05-07T07:32:18;8.50;2.30
36924;DHT22;22841;50.252;18.688;2023-05-07T07:34:44;8.50;1.00
36924;DHT22;22841;50.252;18.688;2023-05-07T07:37:10;8.50;1.00
36924;DHT22;22841;50.252;18.688;2023-05-07T07:39:36;8.50;1.00
36924;DHT22;22841;50.252;18.688;2023-05-07T07:42:05;8.60;1.00
36924;DHT22;22841;50.252;18.688;2023-05-07T07:44:31;8.60;1.00
36924;DHT22;22841;50.252;18.688;2023-05-07T07:46:57;8.60;1.00
36924;DHT22;22841;50.252;18.688;2023-05-07T07:49:23;8.50;1.00
36924;DHT22;22841;50.252;18.688;2023-05-07T07:51:49;8.60;1.00
36924;DHT22;22841;50.252;18.688;2023-05-07T07:54:16;8.70;1.00
36924;DHT22;22841;50.252;18.688;2023-05-07T07:56:42;8.70;1.00
36924;DHT22;22841;50.252;18.688;2023-05-07T07:59:08;8.80;1.00
36924;DHT22;22841;50.252;18.688;2023-05-07T08:01:35;8.90;1.00
36924;DHT22;22841;50.252;18.688;2023-05-07T08:04:01;8.90;1.00
36924;DHT22;22841;50.252;18.688;2023-05-07T08:06:29;8.90;1.00
36924;DHT22;22841;50.252;18.688;2023-05-07T08:08:55;9.00;1.00
36924;DHT22;22841;50.252;18.688;2023-05-07T08:11:21;9.10;1.00
36924;DHT22;22841;50.252;18.688;2023-05-07T08:13:47;9.10;1.00
36924;DHT22;22841;50.252;18.688;2023-05-07T08:16:13;9.10;1.00
36924;DHT22;22841;50.252;18.688;2023-05-07T08:18:40;9.10;1.00
36924;DHT22;22841;50.252;18.688;2023-05-07T08:21:06;9.00;1.00
36924;DHT22;22841;50.252;18.688;2023-05-07T08:23:32;8.90;1.00
36924;DHT22;22841;50.252;18.688;2023-05-07T08:26:00;8.90;1.00
36924;DHT22;22841;50.252;18.688;2023-05-07T08:28:26;8.90;1.00
36924;DHT22;22841;50.252;18.688;2023-05-07T08:30:52;9.00;1.00
36924;DHT22;22841;50.252;18.688;2023-05-07T08:33:18;8.90;1.00
36924;DHT22;22841;50.252;18.688;2023-05-07T08:35:44;8.90;1.00
36924;DHT22;22841;50.252;18.688;2023-05-07T08:38:10;8.90;1.00
36924;DHT22;22841;50.252;18.688;2023-05-07T08:40:38;9.00;1.00
36924;DHT22;22841;50.252;18.688;2023-05-07T08:43:10;8.90;1.00
36924;DHT22;22841;50.252;18.688;2023-05-07T08:45:39;9.00;1.00
36924;DHT22;22841;50.252;18.688;2023-05-07T08:48:09;8.90;1.00
36924;DHT22;22841;50.252;18.688;2023-05-07T08:50:39;9.00;1.00
36924;DHT22;22841;50.252;18.688;2023-05-07T08:53:06;9.00;1.00
36924;DHT22;22841;50.252;18.688;2023-05-07T08:55:32;9.00;1.00
36924;DHT22;22841;50.252;18.688;2023-05-07T08:57:59;9.00;1.00
36924;DHT22;22841;50.252;18.688;2023-05-07T09:00:25;9.00;1.00
36924;DHT22;22841;50.252;18.688;2023-05-07T09:02:52;9.00;1.00
36924;DHT22;22841;50.252;18.688;2023-05-07T09:05:19;8.90;1.00
36924;DHT22;22841;50.252;18.688;2023-05-07T09:07:45;8.90;1.00
36924;DHT22;22841;50.252;18.688;2023-05-07T09:10:12;9.00;1.00
36924;DHT22;22841;50.252;18.688;2023-05-07T09:12:39;9.10;1.00
36924;DHT22;22841;50.252;18.688;2023-05-07T09:15:06;9.10;1.00
36924;DHT22;22841;50.252;18.688;2023-05-07T09:17:32;9.20;1.00
36924;DHT22;22841;50.252;18.688;2023-05-07T09:20:03;9.30;1.00
36924;DHT22;22841;50.252;18.688;2023-05-07T09:22:32;9.30;1.00
36924;DHT22;22841;50.252;18.688;2023-05-07T09:24:58;9.30;1.00
36924;DHT22;22841;50.252;18.688;2023-05-07T09:27:25;9.30;1.00
36924;DHT22;22841;50.252;18.688;2023-05-07T09:29:51;9.30;99.90
36924;DHT22;22841;50.252;18.688;2023-05-07T09:32:17;9.20;99.90
36924;DHT22;22841;50.252;18.688;2023-05-07T09:34:43;9.30;1.00
36924;DHT22;22841;50.252;18.688;2023-05-07T09:37:12;9.30;1.00
36924;DHT22;22841;50.252;18.688;2023-05-07T09:39:46;9.30;1.00
36924;DHT22;22841;50.252;18.688;2023-05-07T09:42:13;9.30;99.90
36924;DHT22;22841;50.252;18.688;2023-05-07T09:44:41;9.30;1.00
36924;DHT22;22841;50.252;18.688;2023-05-07T09:47:08;9.40;99.90
36924;DHT22;22841;50.252;18.688;2023-05-07T09:49:35;9.50;99.90
36924;DHT22;22841;50.252;18.688;2023-05-07T09:52:04;9.50;99.90
36924;DHT22;22841;50.252;18.688;2023-05-07T09:54:33;9.60;99.90
36924;DHT22;22841;50.252;18.688;2023-05-07T09:57:01;9.50;99.90
36924;DHT22;22841;50.252;18.688;2023-05-07T09:59:30;9.40;99.90
36924;DHT22;22841;50.252;18.688;2023-05-07T10:01:58;9.40;99.90
36924;DHT22;22841;50.252;18.688;2023-05-07T10:04:27;9.40;99.90
36924;DHT22;22841;50.252;18.688;2023-05-07T10:06:54;9.40;99.90
36924;DHT22;22841;50.252;18.688;2023-05-07T10:09:21;9.30;99.90
36924;DHT22;22841;50.252;18.688;2023-05-07T10:11:49;9.30;99.90
36924;DHT22;22841;50.252;18.688;2023-05-07T10:14:15;9.20;99.90
36924;DHT22;22841;50.252;18.688;2023-05-07T10:16:43;9.10;99.90
36924;DHT22;22841;50.252;18.688;2023-05-07T10:19:09;9.00;99.90
36924;DHT22;22841;50.252;18.688;2023-05-07T10:21:41;9.00;99.90
36924;DHT22;22841;50.252;18.688;2023-05-07T10:24:12;8.90;99.90
36924;DHT22;22841;50.252;18.688;2023-05-07T10:26:43;8.90;99.90
36924;DHT22;22841;50.252;18.688;2023-05-07T10:29:25;9.00;99.90
36924;DHT22;22841;50.252;18.688;2023-05-07T10:34:43;9.00;99.90
36924;DHT22;22841;50.252;18.688;2023-05-07T10:37:11;9.10;99.90
36924;DHT22;22841;50.252;18.688;2023-05-07T10:39:38;9.10;99.90
36924;DHT22;22841;50.252;18.688;2023-05-07T10:42:08;9.20;99.90
36924;DHT22;22841;50.252;18.688;2023-05-07T10:44:35;9.20;99.90
36924;DHT22;22841;50.252;18.688;2023-05-07T10:49:30;9.10;99.90
36924;DHT22;22841;50.252;18.688;2023-05-07T10:52:26;9.10;99.90
36924;DHT22;22841;50.252;18.688;2023-05-07T10:57:44;9.10;1.00
36924;DHT22;22841;50.252;18.688;2023-05-07T11:07:58;9.00;99.90
36924;DHT22;22841;50.252;18.688;2023-05-07T11:10:56;8.90;99.90
36924;DHT22;22841;50.252;18.688;2023-05-07T11:13:44;8.80;99.90
36924;DHT22;22841;50.252;18.688;2023-05-07T11:16:21;8.80;99.90
36924;DHT22;22841;50.252;18.688;2023-05-07T11:18:50;8.80;99.90
36924;DHT22;22841;50.252;18.688;2023-05-07T11:21:39;8.80;1.00
36924;DHT22;22841;50.252;18.688;2023-05-07T11:24:07;8.80;1.00
36924;DHT22;22841;50.252;18.688;2023-05-07T11:26:49;8.80;99.90
36924;DHT22;22841;50.252;18.688;2023-05-07T11:29:20;8.90;99.90
36924;DHT22;22841;50.252;18.688;2023-05-07T11:31:51;8.90;1.00
36924;DHT22;22841;50.252;18.688;2023-05-07T11:34:25;8.80;99.90
36924;DHT22;22841;50.252;18.688;2023-05-07T11:36:53;9.00;99.90
36924;DHT22;22841;50.252;18.688;2023-05-07T11:39:27;9.00;99.90
36924;DHT22;22841;50.252;18.688;2023-05-07T11:41:53;9.20;99.90
36924;DHT22;22841;50.252;18.688;2023-05-07T11:44:19;9.20;99.90
36924;DHT22;22841;50.252;18.688;2023-05-07T11:46:45;9.30;99.90
36924;DHT22;22841;50.252;18.688;2023-05-07T11:49:11;9.30;99.90
36924;DHT22;22841;50.252;18.688;2023-05-07T11:51:38;9.30;99.90
36924;DHT22;22841;50.252;18.688;2023-05-07T11:54:05;9.30;99.90
36924;DHT22;22841;50.252;18.688;2023-05-07T11:56:35;9.20;99.90
36924;DHT22;22841;50.252;18.688;2023-05-07T11:59:01;9.20;99.90
36924;DHT22;22841;50.252;18.688;2023-05-07T12:01:27;9.10;99.90
36924;DHT22;22841;50.252;18.688;2023-05-07T12:03:53;9.00;99.90
36924;DHT22;22841;50.252;18.688;2023-05-07T12:06:19;8.90;99.90
36924;DHT22;22841;50.252;18.688;2023-05-07T12:08:46;8.80;99.90
36924;DHT22;22841;50.252;18.688;2023-05-07T12:11:25;8.90;99.90
36924;DHT22;22841;50.252;18.688;2023-05-07T12:13:51;8.90;1.00
36924;DHT22;22841;50.252;18.688;2023-05-07T12:16:19;8.90;99.90
36924;DHT22;22841;50.252;18.688;2023-05-07T12:18:45;8.90;1.00
36924;DHT22;22841;50.252;18.688;2023-05-07T12:21:12;8.90;1.00
36924;DHT22;22841;50.252;18.688;2023-05-07T12:23:39;8.90;99.90
36924;DHT22;22841;50.252;18.688;2023-05-07T12:26:05;8.90;99.90
36924;DHT22;22841;50.252;18.688;2023-05-07T12:28:36;8.90;99.90
36924;DHT22;22841;50.252;18.688;2023-05-07T12:31:03;8.90;99.90
36924;DHT22;22841;50.252;18.688;2023-05-07T12:33:29;8.90;99.90
36924;DHT22;22841;50.252;18.688;2023-05-07T12:35:57;8.80;99.90
36924;DHT22;22841;50.252;18.688;2023-05-07T12:38:23;8.80;99.90
36924;DHT22;22841;50.252;18.688;2023-05-07T12:40:54;8.80;99.90
36924;DHT22;22841;50.252;18.688;2023-05-07T12:43:21;8.80;1.00
36924;DHT22;22841;50.252;18.688;2023-05-07T12:45:50;8.70;1.00
36924;DHT22;22841;50.252;18.688;2023-05-07T12:48:17;8.70;1.00
36924;DHT22;22841;50.252;18.688;2023-05-07T12:50:44;8.80;1.00
36924;DHT22;22841;50.252;18.688;2023-05-07T12:53:11;8.90;99.90
36924;DHT22;22841;50.252;18.688;2023-05-07T12:55:46;9.10;99.90
36924;DHT22;22841;50.252;18.688;2023-05-07T12:58:33;9.30;99.90
36924;DHT22;22841;50.252;18.688;2023-05-07T13:01:04;9.40;99.90
36924;DHT22;22841;50.252;18.688;2023-05-07T13:03:32;9.50;99.90
36924;DHT22;22841;50.252;18.688;2023-05-07T13:06:09;9.40;99.90
36924;DHT22;22841;50.252;18.688;2023-05-07T13:08:37;9.30;99.90
36924;DHT22;22841;50.252;18.688;2023-05-07T13:11:07;9.30;99.90
36924;DHT22;22841;50.252;18.688;2023-05-07T13:13:35;9.30;99.90
36924;DHT22;22841;50.252;18.688;2023-05-07T13:16:02;9.10;99.90
36924;DHT22;22841;50.252;18.688;2023-05-07T13:18:32;9.00;99.90
36924;DHT22;22841;50.252;18.688;2023-05-07T13:20:59;9.00;99.90
36924;DHT22;22841;50.252;18.688;2023-05-07T13:23:26;8.90;99.90
36924;DHT22;22841;50.252;18.688;2023-05-07T13:25:53;8.90;99.90
36924;DHT22;22841;50.252;18.688;2023-05-07T13:28:26;8.90;99.90
36924;DHT22;22841;50.252;18.688;2023-05-07T13:30:52;8.90;99.90
36924;DHT22;22841;50.252;18.688;2023-05-07T13:33:18;8.90;99.90
36924;DHT22;22841;50.252;18.688;2023-05-07T13:35:45;9.00;99.90
36924;DHT22;22841;50.252;18.688;2023-05-07T13:38:11;9.00;99.90
36924;DHT22;22841;50.252;18.688;2023-05-07T13:40:37;9.00;99.90
36924;DHT22;22841;50.252;18.688;2023-05-07T13:43:05;9.00;99.90
36924;DHT22;22841;50.252;18.688;2023-05-07T13:45:31;9.20;99.90
36924;DHT22;22841;50.252;18.688;2023-05-07T13:47:57;9.20;99.90
36924;DHT22;22841;50.252;18.688;2023-05-07T13:50:23;9.20;99.90
36924;DHT22;22841;50.252;18.688;2023-05-07T13:52:49;9.30;99.90
36924;DHT22;22841;50.252;18.688;2023-05-07T13:55:18;9.30;99.90
36924;DHT22;22841;50.252;18.688;2023-05-07T13:57:45;9.20;99.90
36924;DHT22;22841;50.252;18.688;2023-05-07T14:00:12;9.20;99.90
36924;DHT22;22841;50.252;18.688;2023-05-07T14:02:38;9.10;99.90
36924;DHT22;22841;50.252;18.688;2023-05-07T14:05:05;9.10;99.90
36924;DHT22;22841;50.252;18.688;2023-05-07T14:07:31;9.10;99.90
36924;DHT22;22841;50.252;18.688;2023-05-07T14:09:57;9.10;99.90
36924;DHT22;22841;50.252;18.688;2023-05-07T14:12:23;9.10;99.90
36924;DHT22;22841;50.252;18.688;2023-05-07T14:14:49;9.00;99.90
36924;DHT22;22841;50.252;18.688;2023-05-07T14:17:18;9.00;99.90
36924;DHT22;22841;50.252;18.688;2023-05-07T14:19:45;9.00;99.90
36924;DHT22;22841;50.252;18.688;2023-05-07T14:22:13;8.90;99.90
36924;DHT22;22841;50.252;18.688;2023-05-07T14:24:40;9.00;99.90
36924;DHT22;22841;50.252;18.688;2023-05-07T14:27:06;9.00;99.90
36924;DHT22;22841;50.252;18.688;2023-05-07T14:29:32;9.00;99.90
36924;DHT22;22841;50.252;18.688;2023-05-07T14:31:58;9.10;99.90
36924;DHT22;22841;50.252;18.688;2023-05-07T14:34:24;9.10;99.90
36924;DHT22;22841;50.252;18.688;2023-05-07T14:36:50;9.10;99.90
36924;DHT22;22841;50.252;18.688;2023-05-07T14:39:17;9.10;99.90
36924;DHT22;22841;50.252;18.688;2023-05-07T14:41:43;9.00;99.90
36924;DHT22;22841;50.252;18.688;2023-05-07T14:44:09;9.00;99.90
36924;DHT22;22841;50.252;18.688;2023-05-07T14:46:35;8.90;99.90
36924;DHT22;22841;50.252;18.688;2023-05-07T14:49:02;8.90;99.90
36924;DHT22;22841;50.252;18.688;2023-05-07T14:51:28;8.80;99.90
36924;DHT22;22841;50.252;18.688;2023-05-07T14:53:54;8.80;99.90
36924;DHT22;22841;50.252;18.688;2023-05-07T14:56:20;8.80;99.90
36924;DHT22;22841;50.252;18.688;2023-05-07T14:58:47;8.80;99.90
36924;DHT22;22841;50.252;18.688;2023-05-07T15:01:16;8.80;99.90
36924;DHT22;22841;50.252;18.688;2023-05-07T15:03:42;8.70;99.90
36924;DHT22;22841;50.252;18.688;2023-05-07T15:06:08;8.70;99.90
36924;DHT22;22841;50.252;18.688;2023-05-07T15:08:34;8.60;99.90
36924;DHT22;22841;50.252;18.688;2023-05-07T15:11:00;8.70;99.90
36924;DHT22;22841;50.252;18.688;2023-05-07T15:13:26;8.70;99.90
36924;DHT22;22841;50.252;18.688;2023-05-07T15:15:52;8.70;99.90
36924;DHT22;22841;50.252;18.688;2023-05-07T15:18:18;8.70;99.90
36924;DHT22;22841;50.252;18.688;2023-05-07T15:20:44;8.70;99.90
36924;DHT22;22841;50.252;18.688;2023-05-07T15:23:10;8.70;99.90
36924;DHT22;22841;50.252;18.688;2023-05-07T15:25:38;8.70;99.90
36924;DHT22;22841;50.252;18.688;2023-05-07T15:28:04;8.70;99.90
36924;DHT22;22841;50.252;18.688;2023-05-07T15:30:30;8.70;99.90
36924;DHT22;22841;50.252;18.688;2023-05-07T15:32:56;8.80;99.90
36924;DHT22;22841;50.252;18.688;2023-05-07T15:35:22;8.80;99.90
36924;DHT22;22841;50.252;18.688;2023-05-07T15:37:49;8.80;99.90
36924;DHT22;22841;50.252;18.688;2023-05-07T15:40:16;8.80;99.90
36924;DHT22;22841;50.252;18.688;2023-05-07T15:42:45;8.80;99.90
36924;DHT22;22841;50.252;18.688;2023-05-07T15:45:11;8.80;99.90
36924;DHT22;22841;50.252;18.688;2023-05-07T15:47:37;8.70;99.90